Time;durP1;ratioP1;P1;durP2;ratioP2;P2;SDS_P1;SDS_P2;PMS_P1;PMS_P2;Temp;Humidity;BMP_temperature;BMP_pressure;BME280_temperature;BME280_humidity;BME280_pressure;Samples;Min_cycle;Max_cycle;Signal;HPM_P1;HPM_P2
2022/04/27 00:00:17;;;;;;;42.90;23.75;;;;;;;10.09;61.65;100523.00;4860484;28;97351;-84
2022/04/27 00:02:43;;;;;;;37.38;22.77;;;;;;;10.11;61.52;100533.47;4904472;28;101114;-84
2022/04/27 00:05:09;;;;;;;47.40;24.40;;;;;;;9.98;61.41;100525.97;4876529;28;98365;-84
2022/04/27 00:07:34;;;;;;;35.92;23.17;;;;;;;9.71;61.09;100474.28;4892967;28;96829;-83
2022/04/27 00:10:00;;;;;;;41.40;21.67;;;;;;;9.97;61.45;100526.00;4845152;28;96980;-84
2022/04/27 00:12:25;;;;;;;40.00;23.52;;;;;;;9.75;61.70;100508.25;4850563;28;100779;-84
2022/04/27 00:14:52;;;;;;;33.58;21.13;;;;;;;10.03;61.30;100540.69;4877900;28;100961;-83
2022/04/27 00:17:17;;;;;;;37.45;22.05;;;;;;;10.05;61.29;100537.13;4850579;28;96886;-84
2022/04/27 00:19:43;;;;;;;38.25;21.60;;;;;;;9.61;61.22;100473.69;4868010;28;97015;-83
2022/04/27 00:22:11;;;;;;;35.67;20.98;;;;;;;9.78;60.88;100503.81;4871441;28;101272;-84
2022/04/27 00:24:39;;;;;;;40.97;22.30;;;;;;;9.84;60.97;100504.50;4848725;28;101575;-84
2022/04/27 00:27:05;;;;;;;40.13;22.15;;;;;;;10.01;61.11;100555.63;4881282;28;97774;-84
2022/04/27 00:29:30;;;;;;;36.78;21.45;;;;;;;9.91;61.52;100553.25;4861738;28;97288;-84
2022/04/27 00:31:56;;;;;;;33.92;21.52;;;;;;;9.88;61.60;100540.22;4875656;28;98629;-84
2022/04/27 00:34:22;;;;;;;45.30;23.23;;;;;;;9.75;61.33;100516.09;4866950;28;100841;-84
2022/04/27 00:36:47;;;;;;;38.25;22.98;;;;;;;9.74;61.20;100524.00;4866616;28;96763;-84
2022/04/27 00:39:13;;;;;;;38.85;21.92;;;;;;;9.82;60.95;100545.63;4854299;28;97206;-84
2022/04/27 00:41:38;;;;;;;43.33;24.90;;;;;;;9.87;60.75;100562.09;4890436;28;101184;-84
2022/04/27 00:44:04;;;;;;;39.75;21.50;;;;;;;9.92;61.17;100548.88;4860600;28;101165;-84
2022/04/27 00:46:30;;;;;;;37.13;21.23;;;;;;;9.86;61.58;100543.78;4857707;28;96790;-84
2022/04/27 00:48:55;;;;;;;43.90;22.88;;;;;;;9.82;61.24;100563.13;4875367;28;97826;-84
2022/04/27 00:51:23;;;;;;;43.55;22.92;;;;;;;9.72;61.45;100552.91;4865976;28;101873;-84
2022/04/27 00:53:48;;;;;;;36.13;22.58;;;;;;;9.52;61.61;100537.69;4861928;28;101426;-85
2022/04/27 00:56:17;;;;;;;40.60;23.27;;;;;;;9.58;62.09;100557.63;4856430;28;96758;-84
2022/04/27 00:58:42;;;;;;;37.25;21.50;;;;;;;9.53;61.69;100534.16;4846713;28;96926;-84
2022/04/27 01:01:08;;;;;;;39.50;22.02;;;;;;;9.59;61.67;100559.34;4886481;28;100268;-83
2022/04/27 01:03:37;;;;;;;37.03;21.58;;;;;;;9.46;61.87;100552.72;4877225;28;98359;-84
2022/04/27 01:06:04;;;;;;;35.30;21.05;;;;;;;9.56;61.85;100561.19;4859507;28;97425;-83
2022/04/27 01:08:30;;;;;;;38.58;21.48;;;;;;;9.49;61.06;100537.78;4861545;28;96893;-84
2022/04/27 01:10:59;;;;;;;34.42;21.08;;;;;;;9.36;61.11;100519.78;4880192;28;101357;-84
2022/04/27 01:13:27;;;;;;;40.45;23.38;;;;;;;9.60;60.58;100566.34;4885661;28;99769;-84
2022/04/27 01:15:56;;;;;;;39.70;23.02;;;;;;;9.52;61.11;100566.53;4883221;28;97871;-84
2022/04/27 01:18:22;;;;;;;42.60;21.30;;;;;;;9.27;60.79;100531.34;4858446;28;97484;-84
2022/04/27 01:20:49;;;;;;;33.10;19.98;;;;;;;9.53;61.16;100583.09;4869644;28;98343;-84
2022/04/27 01:23:17;;;;;;;36.85;23.30;;;;;;;9.39;61.60;100572.97;4860991;28;101540;-84
2022/04/27 01:25:55;;;;;;;40.55;23.15;;;;;;;9.31;61.10;100567.06;4869389;28;97009;-84
2022/04/27 01:28:25;;;;;;;36.30;22.23;;;;;;;9.27;61.08;100571.50;4866819;28;96874;-84
2022/04/27 01:31:06;;;;;;;41.92;21.80;;;;;;;9.14;61.30;100559.63;4895273;28;101350;-84
2022/04/27 01:33:35;;;;;;;38.33;21.40;;;;;;;9.25;61.88;100575.06;4862584;28;101618;-84
2022/04/27 01:36:02;;;;;;;39.47;21.48;;;;;;;9.17;61.43;100574.41;4863783;28;99042;-81
2022/04/27 01:38:39;;;;;;;39.45;22.92;;;;;;;9.05;61.45;100560.72;4866177;28;96884;-83
2022/04/27 01:41:05;;;;;;;41.25;22.85;;;;;;;9.05;61.95;100562.47;4859101;28;101763;-86
2022/04/27 01:43:33;;;;;;;40.30;23.65;;;;;;;9.18;62.01;100582.22;4877287;28;100734;-83
2022/04/27 01:45:59;;;;;;;42.55;23.33;;;;;;;9.26;61.59;100592.50;4862900;28;96931;-84
2022/04/27 01:48:26;;;;;;;39.10;22.45;;;;;;;9.13;62.19;100591.94;4878113;28;97004;-84
2022/04/27 01:50:52;;;;;;;43.67;23.40;;;;;;;9.12;61.61;100578.88;4881350;28;98523;-84
2022/04/27 01:56:03;;;;;;;40.70;23.92;;;;;;;9.05;62.44;100584.28;4884086;28;97164;-84
2022/04/27 01:58:34;;;;;;;46.15;23.65;;;;;;;8.93;62.12;100573.22;4867263;28;96850;-86
2022/04/27 02:01:00;;;;;;;42.72;24.63;;;;;;;9.02;62.10;100578.25;4865798;28;101455;-84
2022/04/27 02:03:28;;;;;;;44.20;22.88;;;;;;;9.16;62.36;100591.00;4865934;28;101399;-85
2022/04/27 02:05:53;;;;;;;42.22;24.55;;;;;;;9.02;61.73;100573.03;4881085;28;96796;-84
2022/04/27 02:08:22;;;;;;;43.70;24.75;;;;;;;8.88;62.56;100562.00;4881846;28;97772;-89
2022/04/27 02:10:47;;;;;;;41.10;24.05;;;;;;;9.04;62.53;100582.53;4881215;28;101371;-84
2022/04/27 02:13:13;;;;;;;45.25;24.92;;;;;;;9.04;61.88;100569.44;4865868;28;101335;-84
2022/04/27 02:15:39;;;;;;;46.35;24.58;;;;;;;9.07;61.99;100581.59;4880759;28;96829;-85
2022/04/27 02:18:19;;;;;;;45.95;24.83;;;;;;;9.02;61.79;100586.13;4869196;28;96984;-84
2022/04/27 02:20:45;;;;;;;48.08;24.17;;;;;;;8.98;62.20;100579.22;4864892;28;102044;-84
2022/04/27 02:23:13;;;;;;;44.55;26.40;;;;;;;8.88;62.73;100578.56;4866381;28;101138;-84
2022/04/27 02:25:39;;;;;;;52.22;27.27;;;;;;;8.76;62.75;100561.38;4881357;28;96728;-85
2022/04/27 02:28:06;;;;;;;45.63;26.95;;;;;;;8.88;62.76;100591.66;4865588;28;96874;-84
2022/04/27 02:30:32;;;;;;;48.72;26.90;;;;;;;8.94;62.80;100595.91;4864327;28;101362;-84
2022/04/27 02:32:58;;;;;;;47.75;26.23;;;;;;;8.87;62.89;100594.28;4881390;28;100966;-84
2022/04/27 02:35:24;;;;;;;41.22;23.50;;;;;;;8.91;62.45;100590.72;4880561;28;96662;-89
2022/04/27 02:37:49;;;;;;;45.88;25.48;;;;;;;8.87;62.11;100578.59;4897383;28;96615;-85
2022/04/27 02:40:15;;;;;;;45.53;24.75;;;;;;;8.63;62.69;100553.84;4880858;28;101372;-84
2022/04/27 02:42:42;;;;;;;39.60;24.15;;;;;;;8.72;62.52;100572.81;4865010;28;102032;-85
2022/04/27 02:45:09;;;;;;;40.38;24.98;;;;;;;8.66;62.46;100562.47;4912756;28;96692;-84
2022/04/27 02:47:35;;;;;;;42.78;24.50;;;;;;;8.87;61.85;100576.81;4881120;28;96848;-85
2022/04/27 02:52:54;;;;;;;47.13;24.05;;;;;;;8.75;63.11;100591.06;4884399;28;101512;-82
2022/04/27 02:55:29;;;;;;;44.03;25.67;;;;;;;8.76;62.70;100578.84;4881199;28;96809;-83
2022/04/27 02:57:56;;;;;;;46.97;26.52;;;;;;;8.77;62.69;100584.03;4865415;28;97301;-82
2022/04/27 03:00:23;;;;;;;42.65;24.95;;;;;;;8.72;62.82;100578.03;4864994;28;102116;-82
2022/04/27 03:02:49;;;;;;;45.55;25.73;;;;;;;8.82;62.39;100589.19;4864284;28;101264;-82
2022/04/27 03:05:17;;;;;;;44.85;26.17;;;;;;;8.78;61.90;100593.59;4880577;28;97868;-82
2022/04/27 03:07:42;;;;;;;41.22;24.63;;;;;;;8.75;62.15;100595.44;4896433;28;96699;-83
2022/04/27 03:10:08;;;;;;;45.63;26.08;;;;;;;8.70;63.05;100606.03;4864514;28;101824;-83
2022/04/27 03:12:37;;;;;;;38.20;23.67;;;;;;;8.64;63.06;100595.69;4880603;28;101636;-84
2022/04/27 03:15:06;;;;;;;41.72;24.23;;;;;;;8.64;62.97;100587.84;4880646;28;97286;-84
2022/04/27 03:17:32;;;;;;;40.45;24.17;;;;;;;8.65;62.20;100578.22;4864744;28;96900;-85
2022/04/27 03:19:59;;;;;;;42.90;25.05;;;;;;;8.61;62.51;100599.22;4864152;28;101247;-84
2022/04/27 03:22:26;;;;;;;41.60;25.38;;;;;;;8.37;63.07;100560.47;4880644;28;101481;-84
2022/04/27 03:24:51;;;;;;;41.38;25.42;;;;;;;8.70;62.59;100610.41;4864006;28;96820;-84
2022/04/27 03:27:21;;;;;;;42.05;25.67;;;;;;;8.53;62.99;100581.97;4865617;28;96849;-84
2022/04/27 03:29:48;;;;;;;38.50;26.08;;;;;;;8.67;63.13;100603.47;4864149;28;101416;-84
2022/04/27 03:32:14;;;;;;;39.28;24.02;;;;;;;8.68;63.35;100605.19;4864782;28;101216;-85
2022/04/27 03:34:46;;;;;;;43.03;24.80;;;;;;;8.60;63.16;100615.81;4880613;28;96727;-84
2022/04/27 03:37:12;;;;;;;39.95;24.08;;;;;;;8.57;63.54;100617.63;4865184;28;96954;-85
2022/04/27 03:39:38;;;;;;;41.45;25.48;;;;;;;8.44;63.58;100598.72;4879520;28;100746;-84
2022/04/27 03:42:04;;;;;;;40.17;24.67;;;;;;;8.31;63.48;100586.75;4863847;28;101956;-84
2022/04/27 03:44:32;;;;;;;41.33;24.27;;;;;;;8.47;63.44;100613.50;4860174;28;98086;-85
2022/04/27 03:46:58;;;;;;;44.97;24.75;;;;;;;8.60;63.17;100635.88;4892605;28;97769;-85
2022/04/27 03:49:24;;;;;;;39.13;23.52;;;;;;;8.68;62.77;100630.50;4860847;28;101861;-84
2022/04/27 03:51:49;;;;;;;40.33;23.67;;;;;;;8.69;62.78;100625.22;4876550;28;98441;-84
2022/04/27 03:54:17;;;;;;;36.78;22.48;;;;;;;8.77;63.15;100630.31;4876802;28;96634;-84
2022/04/27 03:56:43;;;;;;;41.30;23.92;;;;;;;8.79;63.10;100639.00;4876397;28;96854;-85
2022/04/27 03:59:11;;;;;;;39.83;24.02;;;;;;;8.50;63.26;100611.69;4860991;28;101655;-84
2022/04/27 04:01:36;;;;;;;38.72;23.98;;;;;;;8.52;63.39;100630.84;4876907;28;101784;-84
2022/04/27 04:04:02;;;;;;;36.05;23.48;;;;;;;8.54;63.86;100638.63;4860127;28;96992;-84
2022/04/27 04:06:27;;;;;;;38.67;23.33;;;;;;;8.15;63.32;100567.91;4893127;28;96793;-84
2022/04/27 04:08:53;;;;;;;42.42;25.15;;;;;;;8.52;63.74;100645.63;4890905;28;101483;-85
2022/04/27 04:11:20;;;;;;;36.88;23.48;;;;;;;8.21;63.80;100593.94;4876676;28;101530;-84
2022/04/27 04:14:04;;;;;;;43.17;24.50;;;;;;;8.49;64.54;100641.31;4875455;28;97216;-85
2022/04/27 04:16:45;;;;;;;42.60;24.17;;;;;;;8.54;64.43;100655.19;4864803;28;96823;-85
2022/04/27 04:19:13;;;;;;;38.97;23.67;;;;;;;8.48;64.09;100628.28;4876196;28;102093;-84
2022/04/27 04:22:17;;;;;;;49.75;24.48;;;;;;;8.56;64.52;100642.94;4864727;28;99396;-85
2022/04/27 04:30:23;;;;;;;36.55;22.80;;;;;;;8.83;64.31;100664.19;4878532;28;101746;-83
2022/04/27 04:33:00;;;;;;;38.88;24.63;;;;;;;8.84;64.15;100665.91;4892013;28;102021;-84
2022/04/27 04:35:32;;;;;;;43.47;25.13;;;;;;;8.99;64.20;100675.22;4876432;28;97463;-84
2022/04/27 04:37:58;;;;;;;44.72;24.77;;;;;;;8.94;64.32;100677.06;4876160;28;97067;-84
2022/04/27 04:40:25;;;;;;;43.15;23.50;;;;;;;9.00;64.38;100675.16;4860514;28;101435;-84
2022/04/27 04:42:52;;;;;;;38.85;24.13;;;;;;;8.77;64.46;100639.00;4876454;28;100919;-84
2022/04/27 04:45:18;;;;;;;45.38;24.40;;;;;;;8.99;65.22;100660.34;4863562;28;96671;-84
2022/04/27 04:48:02;;;;;;;45.65;24.52;;;;;;;9.18;64.58;100680.88;4882056;28;96657;-84
2022/04/27 04:50:37;;;;;;;43.72;24.13;;;;;;;9.16;64.72;100664.34;4878287;28;98222;-84
2022/04/27 04:53:22;;;;;;;39.05;23.15;;;;;;;9.28;65.50;100680.66;4882312;28;97069;-84
2022/04/27 04:56:05;;;;;;;48.45;23.52;;;;;;;9.43;65.23;100683.81;4883824;28;97859;-84
2022/04/27 04:58:54;;;;;;;42.78;21.73;;;;;;;9.40;65.58;100666.41;4868736;28;97203;-85
2022/04/27 05:01:40;;;;;;;41.92;22.63;;;;;;;9.71;65.44;100690.09;4836504;28;98117;-85
2022/04/27 05:04:28;;;;;;;35.10;21.17;;;;;;;9.81;65.39;100693.38;4854270;28;97784;-84
2022/04/27 05:07:20;;;;;;;38.80;21.45;;;;;;;10.05;64.81;100698.88;4864026;28;96841;-84
2022/04/27 05:09:52;;;;;;;35.25;20.20;;;;;;;9.92;64.68;100644.13;4879106;28;96872;-84
2022/04/27 05:12:41;;;;;;;38.92;20.80;;;;;;;10.17;64.06;100667.09;4872235;28;99529;-84
2022/04/27 05:15:17;;;;;;;35.92;20.65;;;;;;;10.60;63.69;100708.78;4894347;28;101088;-84
2022/04/27 05:17:51;;;;;;;31.20;20.08;;;;;;;10.65;63.69;100682.41;4865120;28;96841;-82
2022/04/27 05:20:38;;;;;;;39.40;20.77;;;;;;;10.93;62.86;100702.63;4858461;28;96814;-83
2022/04/27 05:23:13;;;;;;;34.65;21.08;;;;;;;11.04;62.34;100693.50;4877918;28;98051;-83
2022/04/27 05:26:12;;;;;;;35.65;20.33;;;;;;;11.33;61.95;100718.03;4882811;28;98002;-83
2022/04/27 05:31:54;;;;;;;33.90;19.42;;;;;;;11.83;60.52;100715.56;4885933;28;97759;-84
2022/04/27 05:34:38;;;;;;;35.00;20.08;;;;;;;12.02;60.60;100715.00;4897983;28;97904;-87
2022/04/27 05:37:18;;;;;;;33.00;20.02;;;;;;;12.36;60.10;100719.94;4869792;28;101194;-82
2022/04/27 05:40:00;;;;;;;29.80;20.00;;;;;;;12.64;59.37;100719.84;4883517;28;96882;-81
2022/04/27 05:42:35;;;;;;;34.53;18.95;;;;;;;12.91;58.69;100707.41;4868208;28;96985;-82
2022/04/27 05:45:19;;;;;;;29.05;18.38;;;;;;;13.10;58.45;100707.59;4870744;28;101492;-82
2022/04/27 05:48:12;;;;;;;29.02;18.77;;;;;;;13.22;57.99;100695.72;4889504;28;99472;-82
2022/04/27 05:50:41;;;;;;;26.80;18.77;;;;;;;13.63;57.41;100715.19;4871860;28;97108;-82
2022/04/27 05:53:28;;;;;;;32.38;18.98;;;;;;;14.01;56.95;100720.66;4852793;28;96792;-82
2022/04/27 05:56:26;;;;;;;27.95;19.35;;;;;;;14.30;55.72;100726.50;4870903;28;99416;-81
2022/04/27 05:58:57;;;;;;;29.42;18.92;;;;;;;14.65;55.02;100731.13;4860259;28;97815;-81
2022/04/27 06:01:45;;;;;;;30.40;18.85;;;;;;;15.06;54.40;100725.75;4867322;28;96636;-82
2022/04/27 06:04:10;;;;;;;27.50;17.60;;;;;;;15.33;53.93;100725.38;4861753;28;97473;-81
2022/04/27 06:06:43;;;;;;;28.42;17.55;;;;;;;15.38;53.10;100710.16;4848422;28;101790;-83
2022/04/27 06:09:10;;;;;;;28.98;17.90;;;;;;;15.76;52.83;100729.50;4846740;28;101647;-82
2022/04/27 06:11:52;;;;;;;24.27;16.67;;;;;;;16.20;52.10;100730.84;4850802;28;96837;-83
2022/04/27 06:14:38;;;;;;;24.35;16.13;;;;;;;16.44;51.35;100704.91;4864283;28;98056;-82
2022/04/27 06:17:08;;;;;;;27.43;16.23;;;;;;;16.86;50.15;100736.25;4848177;28;101937;-83
2022/04/27 06:19:35;;;;;;;29.27;15.93;;;;;;;17.05;49.89;100743.25;4846298;28;101977;-83
2022/04/27 06:22:03;;;;;;;25.98;16.42;;;;;;;17.48;48.46;100743.50;4846265;28;97366;-82
2022/04/27 06:24:32;;;;;;;28.05;16.13;;;;;;;17.35;47.30;100700.88;4862542;28;97757;-82
2022/04/27 06:27:15;;;;;;;31.15;15.65;;;;;;;18.05;46.28;100735.84;4851241;28;100182;-83
2022/04/27 06:29:41;;;;;;;30.38;16.42;;;;;;;18.26;45.71;100753.16;4846250;28;101767;-82
2022/04/27 06:32:07;;;;;;;20.88;15.15;;;;;;;18.53;45.72;100755.97;4862411;28;96608;-82
2022/04/27 06:34:32;;;;;;;25.60;14.13;;;;;;;18.86;45.10;100757.56;4861927;28;96861;-82
2022/04/27 06:36:58;;;;;;;21.00;15.52;;;;;;;19.12;44.33;100763.91;4860777;28;101311;-82
2022/04/27 06:39:38;;;;;;;21.92;14.68;;;;;;;19.30;43.44;100763.72;4849993;28;101137;-83
2022/04/27 06:42:06;;;;;;;29.05;16.42;;;;;;;19.68;43.06;100753.28;4877577;28;96898;-83
2022/04/27 06:44:35;;;;;;;31.65;17.77;;;;;;;20.00;41.71;100760.97;4877549;28;96967;-82
2022/04/27 06:47:18;;;;;;;22.70;15.13;;;;;;;20.53;41.21;100760.03;4880524;28;97169;-83
2022/04/27 06:50:03;;;;;;;23.75;15.27;;;;;;;20.89;41.03;100750.44;4880036;28;97133;-83
2022/04/27 06:52:47;;;;;;;21.52;15.05;;;;;;;21.45;39.56;100750.88;4864110;28;96725;-83
2022/04/27 06:55:31;;;;;;;32.13;16.75;;;;;;;22.00;38.53;100751.31;4877570;28;96650;-82
2022/04/27 06:58:17;;;;;;;28.23;16.15;;;;;;;22.42;37.64;100758.88;4880536;28;99489;-80
2022/04/27 07:00:47;;;;;;;26.95;14.50;;;;;;;22.57;37.44;100753.22;4846137;28;101802;-82
2022/04/27 07:03:12;;;;;;;22.02;14.40;;;;;;;22.74;37.01;100761.72;4846103;28;96694;-82
2022/04/27 07:05:41;;;;;;;26.70;15.23;;;;;;;22.99;35.90;100761.53;4861917;28;98254;-82
2022/04/27 07:08:06;;;;;;;20.45;14.93;;;;;;;23.12;35.94;100756.06;4860898;28;100681;-82
2022/04/27 07:10:38;;;;;;;19.63;12.35;;;;;;;23.44;35.10;100763.31;4861094;28;101172;-82
2022/04/27 07:13:05;;;;;;;21.42;12.38;;;;;;;23.79;33.90;100756.94;4877644;28;96766;-81
2022/04/27 07:15:31;;;;;;;25.92;13.18;;;;;;;23.79;34.14;100748.91;4861251;28;96773;-80
2022/04/27 07:17:56;;;;;;;18.10;13.40;;;;;;;24.05;32.88;100742.22;4845497;28;101506;-80
2022/04/27 07:20:22;;;;;;;21.58;12.70;;;;;;;24.23;33.18;100752.38;4876917;28;101556;-80
2022/04/27 07:22:47;;;;;;;20.30;11.35;;;;;;;24.70;32.22;100764.44;4845351;28;97056;-83
2022/04/27 07:25:14;;;;;;;14.02;10.52;;;;;;;24.66;31.62;100725.41;4877052;28;97413;-80
2022/04/27 07:27:40;;;;;;;18.48;10.30;;;;;;;25.27;31.01;100762.16;4894323;28;97828;-83
2022/04/27 07:30:06;;;;;;;15.80;9.30;;;;;;;25.58;30.38;100762.97;4876828;28;98137;-82
2022/04/27 07:32:31;;;;;;;11.73;7.72;;;;;;;26.00;29.82;100770.81;4861400;28;96656;-83
2022/04/27 07:34:57;;;;;;;9.55;7.28;;;;;;;26.23;28.43;100773.22;4860617;28;97273;-80
2022/04/27 07:37:22;;;;;;;19.65;8.68;;;;;;;26.42;27.68;100766.00;4860989;28;97726;-83
2022/04/27 07:39:48;;;;;;;12.25;7.75;;;;;;;26.62;28.09;100760.59;4876237;28;101202;-82
2022/04/27 07:42:15;;;;;;;23.70;8.05;;;;;;;26.89;28.01;100767.03;4845868;28;96780;-82
2022/04/27 07:44:41;;;;;;;9.93;7.05;;;;;;;27.19;27.12;100768.63;4892213;28;97091;-81
2022/04/27 07:47:08;;;;;;;16.75;7.10;;;;;;;27.22;27.06;100739.53;4860192;28;101600;-81
2022/04/27 07:49:34;;;;;;;11.75;6.93;;;;;;;27.50;26.92;100770.03;4860996;28;97846;-81
2022/04/27 07:52:00;;;;;;;12.05;6.65;;;;;;;27.79;27.08;100768.19;4860854;28;97199;-81
2022/04/27 07:54:25;;;;;;;11.60;6.80;;;;;;;27.97;26.01;100766.34;4845575;28;96811;-81
2022/04/27 07:56:51;;;;;;;9.77;6.30;;;;;;;28.16;25.66;100763.47;4860604;28;101561;-82
2022/04/27 07:59:16;;;;;;;10.82;6.65;;;;;;;28.13;25.61;100755.69;4860105;28;101675;-81
2022/04/27 08:01:42;;;;;;;7.50;6.43;;;;;;;28.48;24.96;100772.88;4876446;28;98190;-82
2022/04/27 08:04:07;;;;;;;10.43;5.72;;;;;;;28.40;25.47;100768.22;4875946;28;97142;-81
2022/04/27 08:06:33;;;;;;;8.95;5.53;;;;;;;28.83;24.97;100776.47;4876971;28;98015;-82
2022/04/27 08:08:58;;;;;;;11.02;7.60;;;;;;;28.83;25.51;100765.66;4843994;28;101558;-82
2022/04/27 08:11:24;;;;;;;9.68;7.20;;;;;;;28.77;25.36;100777.97;4892400;28;96729;-82
2022/04/27 08:13:49;;;;;;;9.05;6.40;;;;;;;28.09;25.80;100762.38;4844596;28;97855;-85
2022/04/27 08:16:15;;;;;;;14.70;7.53;;;;;;;27.55;26.58;100788.47;4876876;28;98174;-82
2022/04/27 08:18:41;;;;;;;12.65;7.50;;;;;;;27.08;27.05;100783.09;4876332;28;101266;-83
2022/04/27 08:21:16;;;;;;;11.85;5.93;;;;;;;27.62;26.83;100772.53;4844733;28;96819;-82
2022/04/27 08:23:43;;;;;;;10.40;5.97;;;;;;;26.80;27.03;100779.53;4845982;28;96593;-83
2022/04/27 08:26:10;;;;;;;11.70;6.93;;;;;;;26.17;27.53;100780.03;4859707;28;102086;-82
2022/04/27 08:28:39;;;;;;;8.38;5.97;;;;;;;25.38;28.14;100778.19;4860157;28;101197;-82
2022/04/27 08:31:06;;;;;;;9.43;5.07;;;;;;;25.94;27.23;100787.50;4875894;28;97214;-81
2022/04/27 08:33:32;;;;;;;8.27;4.55;;;;;;;26.85;25.96;100770.03;4876743;28;96898;-82
2022/04/27 08:35:57;;;;;;;6.13;3.70;;;;;;;27.78;25.30;100783.50;4859810;28;101602;-82
2022/04/27 08:38:23;;;;;;;8.38;3.78;;;;;;;28.34;23.84;100773.41;4876086;28;101690;-82
2022/04/27 08:40:49;;;;;;;4.15;2.72;;;;;;;28.17;23.04;100784.06;4891846;28;96730;-82
2022/04/27 08:43:15;;;;;;;4.68;3.33;;;;;;;27.27;24.12;100753.41;4857224;28;96898;-81
2022/04/27 08:45:43;;;;;;;8.70;4.63;;;;;;;26.14;24.63;100788.38;4856598;28;101852;-82
2022/04/27 08:48:09;;;;;;;5.53;3.92;;;;;;;25.32;25.68;100762.63;4872224;28;99837;-82
2022/04/27 08:50:35;;;;;;;5.30;3.70;;;;;;;24.98;26.10;100789.72;4856737;28;96767;-82
2022/04/27 08:53:01;;;;;;;5.40;3.20;;;;;;;24.11;26.39;100786.44;4872521;28;97368;-82
2022/04/27 08:55:27;;;;;;;4.03;3.03;;;;;;;23.88;27.27;100799.94;4857129;28;97981;-82
2022/04/27 08:57:54;;;;;;;6.50;3.67;;;;;;;23.40;27.70;100777.97;4872281;28;101266;-86
2022/04/27 09:00:22;;;;;;;5.05;2.85;;;;;;;23.60;26.64;100789.75;4875023;28;96862;-81
2022/04/27 09:02:52;;;;;;;4.88;3.05;;;;;;;23.55;26.65;100783.91;4876428;28;96912;-82
2022/04/27 09:05:20;;;;;;;5.97;3.05;;;;;;;23.34;27.18;100802.56;4876460;28;102098;-81
2022/04/27 09:07:50;;;;;;;8.13;3.30;;;;;;;22.88;27.94;100804.31;4892317;28;101246;-82
2022/04/27 09:10:18;;;;;;;6.78;3.40;;;;;;;22.73;27.62;100789.47;4844522;28;96670;-81
2022/04/27 09:12:45;;;;;;;4.15;2.50;;;;;;;22.38;27.77;100801.06;4876255;28;96885;-81
2022/04/27 09:15:11;;;;;;;6.30;3.15;;;;;;;22.27;28.02;100795.66;4843302;28;101765;-81
2022/04/27 09:23:07;;;;;;;4.95;2.78;;;;;;;22.26;28.63;100802.00;4875551;28;96841;-81
2022/04/27 09:25:34;;;;;;;4.05;2.80;;;;;;;22.73;28.41;100805.53;4859655;28;102416;-82
2022/04/27 09:28:03;;;;;;;4.35;2.80;;;;;;;22.81;28.51;100787.06;4890954;28;101438;-82
2022/04/27 09:30:33;;;;;;;6.45;2.90;;;;;;;22.74;27.77;100785.81;4844155;28;96651;-82
2022/04/27 09:32:59;;;;;;;4.68;3.03;;;;;;;22.48;27.88;100799.38;4844475;28;96969;-82
2022/04/27 09:35:35;;;;;;;6.57;2.40;;;;;;;22.29;28.59;100791.06;4843962;28;102086;-81
2022/04/27 09:38:18;;;;;;;5.10;2.50;;;;;;;22.09;29.23;100796.06;4859660;28;98361;-81
2022/04/27 09:40:53;;;;;;;7.68;3.28;;;;;;;22.23;29.30;100795.06;4843700;28;97936;-82
2022/04/27 09:43:47;;;;;;;4.63;2.90;;;;;;;22.83;27.73;100791.31;4860989;28;97103;-81
2022/04/27 09:46:22;;;;;;;5.30;4.78;;;;;;;22.67;27.55;100790.78;4874814;28;101997;-81
2022/04/27 09:49:08;;;;;;;7.57;3.63;;;;;;;21.83;28.25;100755.22;4859317;28;101360;-82
2022/04/27 09:51:42;;;;;;;7.90;3.45;;;;;;;21.77;29.04;100782.41;4860143;28;96670;-81
2022/04/27 09:54:09;;;;;;;5.82;3.10;;;;;;;21.60;29.77;100802.34;4859100;28;97129;-81
2022/04/27 09:56:38;;;;;;;4.60;3.03;;;;;;;21.41;29.79;100793.94;4875770;28;97609;-81
2022/04/27 09:59:09;;;;;;;15.20;4.45;;;;;;;21.14;30.10;100800.25;4874615;28;101365;-82
2022/04/27 10:01:36;;;;;;;5.13;3.17;;;;;;;20.97;30.43;100796.13;4860329;28;96816;-81
2022/04/27 10:04:06;;;;;;;3.97;3.28;;;;;;;20.79;30.47;100802.72;4858678;28;96759;-81
2022/04/27 10:06:32;;;;;;;3.90;2.88;;;;;;;20.63;30.54;100805.59;4859293;28;101487;-81
2022/04/27 10:09:03;;;;;;;5.85;2.95;;;;;;;20.44;30.56;100789.97;4874631;28;97844;-86
2022/04/27 10:11:31;;;;;;;8.85;3.78;;;;;;;20.31;30.71;100794.44;4859775;28;97005;-81
2022/04/27 10:13:56;;;;;;;10.68;3.10;;;;;;;20.17;30.79;100800.69;4858957;28;96990;-83
2022/04/27 10:16:23;;;;;;;5.25;2.53;;;;;;;20.04;30.75;100810.44;4859223;28;101036;-81
2022/04/27 10:18:50;;;;;;;4.30;2.60;;;;;;;20.08;31.14;100817.28;4874665;28;100937;-83
2022/04/27 10:21:39;;;;;;;6.78;2.80;;;;;;;19.80;31.21;100786.25;4859458;28;96674;-82
2022/04/27 10:24:05;;;;;;;6.88;2.90;;;;;;;19.74;31.73;100808.81;4874591;28;96891;-81
2022/04/27 10:26:31;;;;;;;3.90;2.70;;;;;;;19.68;32.04;100807.41;4875064;28;98092;-83
2022/04/27 10:29:02;;;;;;;7.53;3.55;;;;;;;19.72;31.78;100808.06;4842850;28;101394;-83
2022/04/27 10:31:40;;;;;;;9.75;4.03;;;;;;;19.72;31.58;100823.19;4859482;28;96759;-81
2022/04/27 10:34:20;;;;;;;7.45;2.72;;;;;;;19.62;31.63;100828.22;4858251;28;97024;-82
2022/04/27 10:36:50;;;;;;;5.53;3.00;;;;;;;19.39;31.49;100811.03;4873894;28;97738;-83
2022/04/27 10:39:26;;;;;;;5.57;3.05;;;;;;;19.37;31.53;100834.22;4871117;28;101880;-75
2022/04/27 10:42:16;;;;;;;5.65;3.00;;;;;;;19.26;31.66;100832.25;4862208;28;96685;-75
2022/04/27 10:44:50;;;;;;;5.22;2.92;;;;;;;19.16;32.24;100825.78;4909631;28;96883;-76
2022/04/27 10:47:20;;;;;;;5.78;3.47;;;;;;;18.96;32.42;100809.22;4913806;28;97524;-74
2022/04/27 10:49:47;;;;;;;5.95;3.90;;;;;;;18.70;32.92;100792.19;4880708;28;97623;-76
2022/04/27 10:52:13;;;;;;;5.65;3.97;;;;;;;18.76;33.42;100812.25;4879464;28;96717;-79
2022/04/27 10:54:40;;;;;;;7.45;3.67;;;;;;;18.73;33.59;100834.59;4861694;28;97023;-78
2022/04/27 10:57:14;;;;;;;8.55;4.20;;;;;;;18.67;33.82;100834.88;4879250;28;102063;-78
2022/04/27 10:59:51;;;;;;;6.22;3.97;;;;;;;18.56;34.49;100834.69;4880140;28;101760;-77
2022/04/27 11:02:40;;;;;;;4.93;3.22;;;;;;;18.63;34.34;100830.72;4879810;28;96668;-78
2022/04/27 11:05:11;;;;;;;6.45;3.90;;;;;;;18.47;33.87;100796.22;4862602;28;97031;-81
2022/04/27 11:07:56;;;;;;;6.20;3.83;;;;;;;18.64;33.81;100836.88;4876648;28;101166;-76
2022/04/27 11:10:24;;;;;;;6.97;4.38;;;;;;;18.45;33.36;100829.16;4875171;28;98091;-78
2022/04/27 11:12:54;;;;;;;6.30;3.80;;;;;;;18.45;33.62;100831.81;4861121;28;97241;-76
2022/04/27 11:15:25;;;;;;;8.60;3.75;;;;;;;18.58;33.99;100829.28;4857949;28;97605;-78
2022/04/27 11:18:03;;;;;;;10.75;4.43;;;;;;;18.61;34.20;100839.72;4859544;28;101267;-79
2022/04/27 11:20:33;;;;;;;7.82;4.00;;;;;;;18.58;33.63;100837.25;4859945;28;97593;-81
2022/04/27 11:22:59;;;;;;;7.05;4.00;;;;;;;18.54;33.89;100836.59;4873676;28;97863;-80
2022/04/27 11:25:49;;;;;;;10.45;4.53;;;;;;;18.55;34.22;100839.13;4852101;28;97002;-80
2022/04/27 11:28:16;;;;;;;10.25;4.13;;;;;;;18.60;34.29;100840.69;4875044;28;101373;-78
2022/04/27 11:30:41;;;;;;;5.60;4.53;;;;;;;18.47;34.48;100835.22;4859528;28;101433;-82
2022/04/27 11:33:07;;;;;;;6.15;4.22;;;;;;;18.36;34.60;100835.03;4861666;28;96839;-84
2022/04/27 11:35:50;;;;;;;8.43;4.72;;;;;;;18.43;34.84;100849.66;4877369;28;97156;-84
2022/04/27 11:38:20;;;;;;;5.63;3.63;;;;;;;18.28;34.86;100833.66;4863739;28;102194;-88
2022/04/27 11:40:48;;;;;;;8.27;4.03;;;;;;;18.36;34.58;100838.53;4881271;28;97328;-85
2022/04/27 11:43:22;;;;;;;5.13;3.70;;;;;;;18.18;34.17;100826.28;4877052;28;97300;-86
2022/04/27 11:45:51;;;;;;;8.75;3.78;;;;;;;18.17;34.57;100840.53;4876900;28;96858;-83
2022/04/27 11:48:18;;;;;;;6.95;4.10;;;;;;;18.21;34.90;100834.06;4876039;28;101893;-85